createdAt,value
2022-11-20T00:01:35.607Z,21.85
2022-11-20T00:04:04.090Z,25.25
2022-11-20T00:06:32.603Z,22.95
2022-11-20T00:09:03.324Z,24.35
2022-11-20T00:11:33.070Z,24.33
2022-11-20T00:14:02.988Z,26.45
2022-11-20T00:16:34.158Z,24.02
2022-11-20T00:19:02.913Z,19.42
2022-11-20T00:21:31.955Z,22.30
2022-11-20T00:24:01.930Z,21.92
2022-11-20T00:26:31.190Z,20.67
2022-11-20T00:29:02.988Z,18.85
2022-11-20T00:31:33.934Z,19.48
2022-11-20T00:34:02.331Z,22.05
2022-11-20T00:36:33.738Z,23.80
2022-11-20T00:39:03.822Z,20.40
2022-11-20T00:41:32.297Z,21.30
2022-11-20T00:44:00.897Z,21.45
2022-11-20T00:46:30.177Z,25.00
2022-11-20T00:48:58.653Z,25.60
2022-11-20T00:51:28.999Z,22.90
2022-11-20T00:53:58.232Z,22.30
2022-11-20T00:56:28.155Z,21.73
2022-11-20T00:58:56.947Z,22.95
2022-11-20T01:01:27.132Z,22.23
2022-11-20T01:03:57.386Z,24.50
2022-11-20T01:06:28.082Z,25.52
2022-11-20T01:08:58.395Z,26.30
2022-11-20T01:11:30.397Z,22.55
2022-11-20T01:14:00.213Z,27.48
2022-11-20T01:16:31.535Z,24.35
2022-11-20T01:19:01.915Z,26.70
2022-11-20T01:21:32.090Z,24.13
2022-11-20T01:24:01.253Z,24.38
2022-11-20T01:26:33.079Z,24.83
2022-11-20T01:29:03.031Z,23.88
2022-11-20T01:31:33.682Z,25.38
2022-11-20T01:34:04.727Z,21.45
2022-11-20T01:36:34.929Z,25.45
2022-11-20T01:39:06.384Z,23.50
2022-11-20T01:41:54.549Z,23.05
2022-11-20T01:44:44.774Z,25.35
2022-11-20T01:47:17.930Z,23.70
2022-11-20T01:49:51.798Z,23.70
2022-11-20T01:52:23.899Z,22.45
2022-11-20T01:54:56.359Z,20.42
2022-11-20T01:57:28.878Z,22.52
2022-11-20T02:00:02.360Z,23.35
2022-11-20T02:02:43.066Z,22.08
2022-11-20T02:05:20.172Z,23.77
2022-11-20T02:07:49.181Z,23.23
2022-11-20T02:10:18.174Z,25.42
2022-11-20T02:13:05.695Z,23.05
2022-11-20T02:15:35.452Z,24.70
2022-11-20T02:18:03.884Z,22.25
2022-11-20T02:20:32.278Z,25.08
2022-11-20T02:23:06.676Z,21.38
2022-11-20T02:25:38.756Z,21.55
2022-11-20T02:28:07.607Z,26.42
2022-11-20T02:30:36.081Z,21.98
2022-11-20T02:33:04.708Z,22.33
2022-11-20T02:35:45.691Z,19.67
2022-11-20T02:38:15.504Z,21.35
2022-11-20T02:40:45.397Z,22.85
2022-11-20T02:43:13.763Z,25.30
2022-11-20T02:45:42.151Z,22.10
2022-11-20T02:48:10.601Z,22.98
2022-11-20T02:50:40.765Z,19.48
2022-11-20T02:53:09.280Z,22.83
2022-11-20T02:55:38.282Z,19.20
2022-11-20T02:58:08.227Z,18.83
2022-11-20T03:00:36.705Z,22.73
2022-11-20T03:03:05.311Z,20.88
2022-11-20T03:05:33.671Z,20.65
2022-11-20T03:08:02.195Z,20.23
2022-11-20T03:10:30.716Z,23.67
2022-11-20T03:12:59.202Z,19.40
2022-11-20T03:15:28.959Z,20.45
2022-11-20T03:17:57.626Z,20.98
2022-11-20T03:20:26.326Z,23.67
2022-11-20T03:22:56.036Z,22.80
2022-11-20T03:25:24.536Z,19.55
2022-11-20T03:27:53.310Z,23.05
2022-11-20T03:30:23.990Z,20.35
2022-11-20T03:32:56.541Z,19.25
2022-11-20T03:35:25.158Z,21.85
2022-11-20T03:37:53.591Z,19.52
2022-11-20T03:40:22.196Z,18.60
2022-11-20T03:42:50.519Z,22.17
2022-11-20T03:45:20.111Z,19.90
2022-11-20T03:47:48.772Z,20.05
2022-11-20T03:50:18.723Z,23.42
2022-11-20T03:52:47.423Z,21.80
2022-11-20T03:55:15.902Z,28.40
2022-11-20T03:57:44.367Z,24.85
2022-11-20T04:00:14.230Z,25.75
2022-11-20T04:02:42.596Z,25.55
2022-11-20T04:05:11.079Z,23.02
2022-11-20T04:07:41.105Z,30.75
2022-11-20T04:10:10.039Z,30.65
2022-11-20T04:12:38.484Z,32.38
2022-11-20T04:15:07.462Z,25.25
2022-11-20T04:17:35.838Z,25.58
2022-11-20T04:20:05.135Z,25.88
2022-11-20T04:22:33.487Z,23.55
2022-11-20T04:25:03.823Z,28.88
2022-11-20T04:27:32.630Z,27.65
2022-11-20T04:30:01.032Z,23.27
2022-11-20T04:32:29.740Z,27.05
2022-11-20T04:34:58.247Z,27.38
2022-11-20T04:37:26.637Z,25.55
2022-11-20T04:39:55.170Z,26.92
2022-11-20T04:42:31.227Z,25.83
2022-11-20T04:45:00.124Z,27.08
2022-11-20T04:47:28.696Z,32.90
2022-11-20T04:49:57.224Z,31.45
2022-11-20T04:52:25.901Z,31.30
2022-11-20T04:54:54.737Z,28.83
2022-11-20T04:57:23.311Z,33.42
2022-11-20T04:59:53.145Z,31.08
2022-11-20T05:02:22.360Z,30.83
2022-11-20T05:04:50.894Z,28.67
2022-11-20T05:07:19.470Z,32.45
2022-11-20T05:09:48.231Z,35.53
2022-11-20T05:12:16.616Z,35.85
2022-11-20T05:14:45.172Z,39.05
2022-11-20T05:17:15.258Z,35.63
2022-11-20T05:19:43.692Z,37.88
2022-11-20T05:22:12.132Z,33.90
2022-11-20T05:24:40.523Z,33.15
2022-11-20T05:27:09.056Z,38.58
2022-11-20T05:29:37.438Z,36.15
2022-11-20T05:32:08.247Z,35.35
2022-11-20T05:34:38.281Z,37.72
2022-11-20T05:37:06.681Z,36.58
2022-11-20T05:39:35.277Z,30.55
2022-11-20T05:42:21.126Z,39.92
2022-11-20T05:44:49.599Z,33.90
2022-11-20T05:47:18.229Z,34.08
2022-11-20T05:49:48.094Z,35.88
2022-11-20T05:52:16.559Z,35.25
2022-11-20T05:54:45.067Z,38.33
2022-11-20T05:57:13.409Z,36.72
2022-11-20T05:59:41.777Z,34.60
2022-11-20T06:02:10.532Z,33.50
2022-11-20T06:04:39.041Z,37.42
2022-11-20T06:07:09.271Z,39.67
2022-11-20T06:09:37.907Z,34.55
2022-11-20T06:12:07.785Z,30.00
2022-11-20T06:14:36.257Z,35.70
2022-11-20T06:17:04.709Z,33.47
2022-11-20T06:19:33.042Z,34.75
2022-11-20T06:22:01.368Z,28.38
2022-11-20T06:24:31.257Z,33.53
2022-11-20T06:26:59.734Z,28.98
2022-11-20T06:29:33.643Z,27.80
2022-11-20T06:32:02.599Z,26.35
2022-11-20T06:34:31.036Z,25.35
2022-11-20T06:36:59.554Z,23.30
2022-11-20T06:39:27.898Z,20.27
2022-11-20T06:41:59.278Z,20.13
2022-11-20T06:44:28.121Z,23.70
2022-11-20T06:46:56.558Z,23.58
2022-11-20T06:49:25.185Z,23.08
2022-11-20T06:51:53.735Z,21.27
2022-11-20T06:54:22.122Z,19.48
2022-11-20T06:56:50.864Z,20.45
2022-11-20T06:59:21.064Z,21.60
2022-11-20T07:01:49.541Z,22.52
2022-11-20T07:04:17.960Z,21.17
2022-11-20T07:06:46.432Z,21.70
2022-11-20T07:09:14.957Z,20.45
2022-11-20T07:11:43.347Z,20.70
2022-11-20T07:14:11.716Z,24.63
2022-11-20T07:16:41.633Z,24.23
2022-11-20T07:19:09.978Z,24.13
2022-11-20T07:21:38.341Z,19.75
2022-11-20T07:24:06.851Z,22.17
2022-11-20T07:26:36.389Z,21.05
2022-11-20T07:29:05.098Z,20.83
2022-11-20T07:31:33.539Z,21.98
2022-11-20T07:34:03.361Z,21.88
2022-11-20T07:36:31.756Z,25.40
2022-11-20T07:39:00.146Z,20.20
2022-11-20T07:41:28.574Z,22.98
2022-11-20T07:43:57.008Z,20.52
2022-11-20T07:46:25.450Z,20.95
2022-11-20T07:48:54.411Z,20.48
2022-11-20T07:52:19.076Z,21.73
2022-11-20T07:54:48.853Z,22.20
2022-11-20T07:57:17.263Z,25.35
2022-11-20T07:59:46.938Z,22.30
2022-11-20T08:02:15.582Z,25.15
2022-11-20T08:04:44.064Z,23.23
2022-11-20T08:07:12.527Z,26.13
2022-11-20T08:09:40.913Z,23.63
2022-11-20T08:12:36.317Z,25.77
2022-11-20T08:15:11.300Z,24.15
2022-11-20T08:17:41.515Z,20.75
2022-11-20T08:20:11.060Z,24.10
2022-11-20T08:22:39.441Z,22.52
2022-11-20T08:25:08.570Z,18.23
2022-11-20T08:27:38.999Z,23.15
2022-11-20T08:30:08.990Z,21.58
2022-11-20T08:32:38.642Z,22.90
2022-11-20T08:35:07.472Z,21.90
2022-11-20T08:37:35.887Z,22.65
2022-11-20T08:40:04.665Z,19.08
2022-11-20T08:42:33.032Z,19.23
2022-11-20T08:45:02.886Z,20.35
2022-11-20T08:47:31.525Z,23.05
2022-11-20T08:49:59.914Z,25.08
2022-11-20T08:52:28.620Z,25.33
2022-11-20T08:54:57.088Z,26.85
2022-11-20T08:57:25.578Z,29.15
2022-11-20T09:00:09.747Z,28.95
2022-11-20T09:02:39.824Z,25.65
2022-11-20T09:05:08.725Z,26.60
2022-11-20T09:07:37.153Z,26.50
2022-11-20T09:12:55.970Z,27.83
2022-11-20T09:15:24.857Z,27.45
2022-11-20T09:17:55.372Z,23.83
2022-11-20T09:20:24.277Z,29.50
2022-11-20T09:22:52.693Z,23.65
2022-11-20T09:25:21.189Z,25.38
2022-11-20T09:27:50.079Z,24.88
2022-11-20T09:30:19.035Z,26.45
2022-11-20T09:32:47.406Z,27.35
2022-11-20T09:35:18.679Z,26.52
2022-11-20T09:37:47.439Z,27.52
2022-11-20T09:40:22.831Z,26.88
2022-11-20T09:42:57.280Z,26.13
2022-11-20T09:45:37.416Z,28.63
2022-11-20T09:48:20.516Z,30.25
2022-11-20T09:50:56.343Z,29.30
2022-11-20T09:53:32.882Z,29.27
2022-11-20T09:56:03.738Z,23.10
2022-11-20T09:58:36.571Z,26.15
2022-11-20T10:01:13.390Z,28.98
2022-11-20T10:03:49.610Z,23.00
2022-11-20T10:06:21.477Z,25.45
2022-11-20T10:08:57.759Z,26.35
2022-11-20T10:11:35.271Z,23.80
2022-11-20T10:14:15.390Z,27.23
2022-11-20T10:16:53.799Z,25.35
2022-11-20T10:19:43.846Z,26.50
2022-11-20T10:22:28.890Z,25.83
2022-11-20T10:25:00.212Z,28.00
2022-11-20T10:28:05.588Z,25.17
2022-11-20T10:30:39.961Z,24.23
2022-11-20T10:33:17.410Z,23.13
2022-11-20T10:35:51.607Z,20.85
2022-11-20T10:38:27.090Z,21.92
2022-11-20T10:41:19.596Z,20.80
2022-11-20T10:43:50.176Z,20.90
2022-11-20T10:46:23.008Z,21.13
2022-11-20T10:48:52.608Z,18.27
2022-11-20T10:51:36.815Z,17.67
2022-11-20T10:54:18.272Z,15.95
2022-11-20T10:56:50.501Z,18.23
2022-11-20T10:59:37.562Z,18.75
2022-11-20T11:02:17.569Z,16.48
2022-11-20T11:04:48.629Z,16.85
2022-11-20T11:07:22.401Z,16.67
2022-11-20T11:09:55.354Z,16.65
2022-11-20T11:12:26.516Z,13.82
2022-11-20T11:14:56.686Z,16.15
2022-11-20T11:17:29.359Z,15.10
2022-11-20T11:20:02.377Z,16.00
2022-11-20T11:22:32.466Z,14.85
2022-11-20T11:25:02.435Z,14.20
2022-11-20T11:27:31.925Z,15.90
2022-11-20T11:30:14.351Z,14.38
2022-11-20T11:32:43.011Z,13.75
2022-11-20T11:35:23.394Z,12.73
2022-11-20T11:37:55.029Z,15.10
2022-11-20T11:40:27.941Z,11.98
2022-11-20T11:43:00.089Z,11.20
2022-11-20T11:45:28.043Z,13.57
2022-11-20T11:47:59.692Z,11.13
2022-11-20T11:50:29.270Z,15.38
2022-11-20T11:53:13.501Z,11.98
2022-11-20T11:55:48.330Z,12.80
2022-11-20T11:58:26.253Z,13.05
2022-11-20T12:00:59.337Z,10.15
2022-11-20T12:03:31.396Z,11.35
2022-11-20T12:06:03.333Z,10.32
2022-11-20T12:08:39.836Z,8.98
2022-11-20T12:11:18.134Z,10.93
2022-11-20T12:13:54.473Z,9.93
2022-11-20T12:16:23.089Z,8.20
2022-11-20T12:18:53.711Z,9.02
2022-11-20T12:21:30.156Z,13.18
2022-11-20T12:24:24.338Z,7.93
2022-11-20T12:27:05.445Z,7.43
2022-11-20T12:29:45.019Z,10.70
2022-11-20T12:32:36.991Z,6.63
2022-11-20T12:35:31.297Z,7.50
2022-11-20T12:38:21.238Z,6.78
2022-11-20T12:40:59.403Z,10.32
2022-11-20T12:44:00.464Z,7.35
2022-11-20T12:46:37.436Z,6.32
2022-11-20T12:49:22.519Z,4.43
2022-11-20T12:52:04.989Z,4.88
2022-11-20T12:54:48.104Z,5.00
2022-11-20T12:57:24.337Z,4.13
2022-11-20T13:00:10.704Z,7.28
2022-11-20T13:03:00.880Z,4.60
2022-11-20T13:05:38.915Z,4.40
2022-11-20T13:08:19.852Z,5.45
2022-11-20T13:10:54.210Z,3.13
2022-11-20T13:13:28.160Z,2.80
2022-11-20T13:16:02.327Z,4.40
2022-11-20T13:18:38.460Z,3.80
2022-11-20T13:21:16.676Z,3.53
2022-11-20T13:23:45.025Z,2.75
2022-11-20T13:26:19.687Z,5.10
2022-11-20T13:28:49.626Z,4.00
2022-11-20T13:31:32.630Z,2.60
2022-11-20T13:34:03.714Z,6.63
2022-11-20T13:36:33.230Z,3.80
2022-11-20T13:39:01.612Z,2.47
2022-11-20T13:41:34.771Z,4.15
2022-11-20T13:44:16.415Z,4.97
2022-11-20T13:46:47.998Z,2.03
2022-11-20T13:49:27.243Z,3.53
2022-11-20T13:52:06.899Z,2.60
2022-11-20T13:54:56.411Z,2.78
2022-11-20T13:57:42.140Z,2.85
2022-11-20T14:00:15.370Z,2.95
2022-11-20T14:02:45.849Z,3.00
2022-11-20T14:05:23.462Z,2.33
2022-11-20T14:07:53.724Z,3.00
2022-11-20T14:10:28.484Z,3.03
2022-11-20T14:13:00.626Z,2.65
2022-11-20T14:15:31.801Z,2.00
2022-11-20T14:18:13.066Z,3.72
2022-11-20T14:20:43.064Z,3.28
2022-11-20T14:23:12.381Z,4.30
2022-11-20T14:25:44.940Z,4.65
2022-11-20T14:28:23.664Z,5.95
2022-11-20T14:30:52.213Z,7.47
2022-11-20T14:33:28.710Z,5.18
2022-11-20T14:35:59.467Z,3.88
2022-11-20T14:38:30.157Z,12.98
2022-11-20T14:41:08.156Z,7.18
2022-11-20T14:43:38.603Z,4.78
2022-11-20T14:46:09.603Z,4.40
2022-11-20T14:48:42.901Z,3.35
2022-11-20T14:51:12.514Z,5.57
2022-11-20T14:53:40.984Z,3.50
2022-11-20T14:56:10.595Z,4.07
2022-11-20T14:58:38.907Z,4.28
2022-11-20T15:01:09.145Z,5.65
2022-11-20T15:03:40.798Z,5.82
2022-11-20T15:06:12.485Z,2.70
2022-11-20T15:08:40.910Z,3.40
2022-11-20T15:11:20.195Z,5.07
2022-11-20T15:13:48.576Z,3.25
2022-11-20T15:16:20.741Z,4.10
2022-11-20T15:18:50.612Z,2.53
2022-11-20T15:21:21.698Z,3.63
2022-11-20T15:23:50.549Z,4.97
2022-11-20T15:26:26.926Z,5.55
2022-11-20T15:28:56.845Z,3.30
2022-11-20T15:31:25.772Z,4.30
2022-11-20T15:33:55.557Z,4.03
2022-11-20T15:36:24.038Z,4.43
2022-11-20T15:38:52.357Z,4.10
2022-11-20T15:41:20.772Z,3.10
2022-11-20T15:43:49.253Z,2.70
2022-11-20T15:46:23.637Z,5.07
2022-11-20T15:48:57.156Z,3.13
2022-11-20T15:51:28.901Z,3.40
2022-11-20T15:53:58.015Z,2.22
2022-11-20T15:56:27.059Z,2.47
2022-11-20T15:58:55.462Z,5.05
2022-11-20T16:01:24.469Z,3.28
2022-11-20T16:03:52.935Z,3.20
2022-11-20T16:06:26.405Z,2.25
2022-11-20T16:08:54.940Z,2.63
2022-11-20T16:11:23.303Z,1.88
2022-11-20T16:14:09.162Z,2.70
2022-11-20T16:16:41.391Z,2.67
2022-11-20T16:19:12.309Z,1.83
2022-11-20T16:21:43.189Z,3.08
2022-11-20T16:24:13.746Z,2.13
2022-11-20T16:26:42.443Z,2.20
2022-11-20T16:29:11.560Z,2.70
2022-11-20T16:31:40.120Z,2.33
2022-11-20T16:34:12.356Z,2.08
2022-11-20T16:36:42.937Z,1.92
2022-11-20T16:39:11.721Z,1.30
2022-11-20T16:41:40.416Z,2.60
2022-11-20T16:44:10.668Z,1.30
2022-11-20T16:46:40.572Z,1.88
2022-11-20T16:49:13.863Z,1.70
2022-11-20T16:51:43.787Z,2.20
2022-11-20T16:54:15.182Z,6.25
2022-11-20T16:56:47.807Z,1.77
2022-11-20T16:59:16.231Z,2.17
2022-11-20T17:01:44.585Z,4.07
2022-11-20T17:04:13.057Z,3.03
2022-11-20T17:06:45.172Z,3.20
2022-11-20T17:09:13.945Z,2.40
2022-11-20T17:11:42.313Z,2.20
2022-11-20T17:14:11.885Z,3.78
2022-11-20T17:16:40.608Z,3.70
2022-11-20T17:19:08.923Z,3.58
2022-11-20T17:21:38.019Z,3.88
2022-11-20T17:24:10.118Z,3.03
2022-11-20T17:26:39.905Z,5.88
2022-11-20T17:29:11.427Z,7.28
2022-11-20T17:31:40.278Z,4.47
2022-11-20T17:34:11.869Z,5.18
2022-11-20T17:36:45.189Z,6.65
2022-11-20T17:39:16.511Z,11.13
2022-11-20T17:41:45.060Z,6.20
2022-11-20T17:44:13.822Z,6.90
2022-11-20T17:46:42.279Z,5.03
2022-11-20T17:49:10.627Z,7.10
2022-11-20T17:51:38.991Z,4.07
2022-11-20T17:54:08.286Z,5.43
2022-11-20T17:56:55.463Z,5.80
2022-11-20T17:59:23.880Z,8.38
2022-11-20T18:01:52.241Z,11.38
2022-11-20T18:04:20.778Z,7.25
2022-11-20T18:06:49.119Z,8.70
2022-11-20T18:09:17.608Z,10.55
2022-11-20T18:11:47.273Z,9.65
2022-11-20T18:14:34.335Z,6.15
2022-11-20T18:17:04.324Z,8.80
2022-11-20T18:19:38.762Z,7.15
2022-11-20T18:22:09.803Z,6.80
2022-11-20T18:24:39.317Z,6.97
2022-11-20T18:27:14.491Z,8.13
2022-11-20T18:29:42.820Z,7.10
2022-11-20T18:32:11.311Z,6.55
2022-11-20T18:34:39.638Z,11.23
2022-11-20T18:37:09.689Z,10.90
2022-11-20T18:39:38.081Z,5.50
2022-11-20T18:42:24.110Z,8.65
2022-11-20T18:44:54.849Z,8.23
2022-11-20T18:47:25.489Z,7.78
2022-11-20T18:49:57.060Z,6.82
2022-11-20T18:52:27.642Z,8.38
2022-11-20T18:54:56.715Z,14.38
2022-11-20T18:57:27.047Z,8.10
2022-11-20T19:00:02.200Z,6.97
2022-11-20T19:02:40.577Z,10.23
2022-11-20T19:05:10.126Z,7.17
2022-11-20T19:07:38.618Z,10.32
2022-11-20T19:10:08.006Z,9.60
2022-11-20T19:12:36.354Z,5.45
2022-11-20T19:15:06.989Z,4.72
2022-11-20T19:17:35.463Z,5.90
2022-11-20T19:20:03.936Z,6.20
2022-11-20T19:22:32.275Z,5.03
2022-11-20T19:25:00.644Z,5.32
2022-11-20T19:27:29.085Z,6.07
2022-11-20T19:30:02.837Z,5.72
2022-11-20T19:32:32.917Z,6.90
2022-11-20T19:35:01.357Z,8.68
2022-11-20T19:37:29.915Z,4.78
2022-11-20T19:39:59.606Z,5.82
2022-11-20T19:42:28.071Z,6.28
2022-11-20T19:44:58.018Z,3.97
2022-11-20T19:47:46.099Z,5.18
2022-11-20T19:50:16.871Z,3.95
2022-11-20T19:52:45.238Z,3.70
2022-11-20T19:55:13.921Z,5.07
2022-11-20T19:57:42.352Z,3.25
2022-11-20T20:00:12.211Z,1.90
2022-11-20T20:02:40.726Z,4.68
2022-11-20T20:05:09.352Z,3.15
2022-11-20T20:07:40.088Z,4.45
2022-11-20T20:10:09.717Z,3.92
2022-11-20T20:12:38.041Z,3.28
2022-11-20T20:15:07.726Z,3.50
2022-11-20T20:17:36.139Z,8.43
2022-11-20T20:20:05.112Z,7.97
2022-11-20T20:22:33.393Z,3.45
2022-11-20T20:25:03.043Z,7.38
2022-11-20T20:27:32.063Z,9.23
2022-11-20T20:30:00.415Z,4.50
2022-11-20T20:32:28.822Z,4.53
2022-11-20T20:34:57.158Z,7.22
2022-11-20T20:37:26.000Z,6.93
2022-11-20T20:39:54.521Z,4.55
2022-11-20T20:42:24.264Z,7.88
2022-11-20T20:45:07.625Z,9.60
2022-11-20T20:47:37.781Z,7.05
2022-11-20T20:50:07.851Z,4.47
2022-11-20T20:52:36.626Z,7.50
2022-11-20T20:55:05.555Z,7.82
2022-11-20T20:57:35.261Z,5.43
2022-11-20T21:00:05.918Z,6.45
2022-11-20T21:02:34.421Z,9.25
2022-11-20T21:05:03.745Z,6.80
2022-11-20T21:07:32.213Z,4.68
2022-11-20T21:10:00.602Z,4.68
2022-11-20T21:12:28.917Z,10.70
2022-11-20T21:14:58.595Z,8.10
2022-11-20T21:17:28.037Z,8.68
2022-11-20T21:19:56.428Z,8.35
2022-11-20T21:22:23.762Z,9.82
2022-11-20T21:24:52.153Z,6.82
2022-11-20T21:27:20.516Z,8.18
2022-11-20T21:29:48.908Z,8.20
2022-11-20T21:32:18.722Z,6.50
2022-11-20T21:34:47.055Z,7.00
2022-11-20T21:37:15.414Z,10.80
2022-11-20T21:39:50.592Z,9.85
2022-11-20T21:42:19.100Z,8.02
2022-11-20T21:44:47.869Z,5.35
2022-11-20T21:47:16.212Z,8.27
2022-11-20T21:49:45.978Z,7.95
2022-11-20T21:52:14.569Z,12.95
2022-11-20T21:54:42.913Z,9.15
2022-11-20T21:57:11.203Z,11.07
2022-11-20T21:59:39.869Z,12.70
2022-11-20T22:02:08.890Z,8.50
2022-11-20T22:04:37.317Z,10.23
2022-11-20T22:07:07.819Z,8.68
2022-11-20T22:09:36.387Z,10.48
2022-11-20T22:12:05.411Z,9.35
2022-11-20T22:14:32.783Z,8.85
2022-11-20T22:17:01.112Z,10.77
2022-11-20T22:19:29.526Z,6.65
2022-11-20T22:21:58.005Z,9.75
2022-11-20T22:24:27.897Z,8.60
2022-11-20T22:26:56.472Z,11.07
2022-11-20T22:29:24.780Z,11.05
2022-11-20T22:31:53.846Z,7.38
2022-11-20T22:34:22.557Z,12.48
2022-11-20T22:36:51.233Z,8.50
2022-11-20T22:39:21.796Z,6.95
2022-11-20T22:41:51.471Z,11.25
2022-11-20T22:44:19.873Z,5.45
2022-11-20T22:46:48.269Z,11.32
2022-11-20T22:49:16.636Z,6.95
2022-11-20T22:51:45.003Z,12.20
2022-11-20T22:54:14.327Z,13.00
2022-11-20T22:56:42.838Z,11.68
2022-11-20T22:59:12.674Z,9.00
2022-11-20T23:01:41.020Z,14.30
2022-11-20T23:04:11.726Z,9.40
2022-11-20T23:06:40.382Z,12.38
2022-11-20T23:09:09.848Z,6.45
2022-11-20T23:11:38.801Z,9.07
2022-11-20T23:14:08.936Z,6.45
2022-11-20T23:16:38.806Z,6.30
2022-11-20T23:19:09.058Z,11.20
2022-11-20T23:21:39.373Z,8.82
2022-11-20T23:24:08.803Z,9.63
2022-11-20T23:26:39.224Z,9.23
2022-11-20T23:29:07.686Z,8.00
2022-11-20T23:31:37.877Z,5.70
2022-11-20T23:34:06.344Z,9.48
2022-11-20T23:36:34.824Z,7.35
2022-11-20T23:39:03.238Z,11.95
2022-11-20T23:41:32.148Z,12.50
2022-11-20T23:44:00.598Z,10.57
2022-11-20T23:46:28.988Z,12.52
2022-11-20T23:48:58.696Z,10.40
2022-11-20T23:51:27.197Z,8.73
2022-11-20T23:53:58.310Z,6.65
2022-11-20T23:56:28.895Z,13.23
2022-11-20T23:58:57.324Z,8.32
